METAR Data
IDs: Format: Raw Decoded Include TAF

Data at: 0821 UTC 20 Sep 2018

KPHF 200815Z AUTO 00000KT 1 1/2SM BR CLR 19/19 A3004 RMK AO2 T01940189
KPHF 200754Z AUTO 00000KT 3SM BR FEW005 20/19 A3004 RMK AO2 SLP171 T02000194
KPHF 200752Z AUTO 00000KT 1 1/2SM BR FEW005 20/19 A3004 RMK AO2
KPHF 200733Z AUTO 00000KT 3/4SM BR VV005 20/19 A3004 RMK AO2 T02000194
KPHF 200723Z AUTO 00000KT 3/4SM BR CLR 20/19 A3004 RMK AO2 T02000194
KPHF 200716Z AUTO 00000KT 2SM BR FEW007 20/19 A3004 RMK AO2 T02000194
KPHF 200706Z AUTO 00000KT 2SM BR CLR 20/19 A3004 RMK AO2 T02000189
KPHF 200654Z AUTO 00000KT 1/2SM FG VV006 20/19 A3004 RMK AO2 SLP170 T02000189
KPHF 200652Z AUTO 00000KT 3/4SM BR VV006 20/19 A3004 RMK AO2
KPHF 200651Z AUTO 00000KT 3/4SM BR CLR 20/19 A3003 RMK AO2
KPHF 200632Z AUTO 00000KT 2 1/2SM BR CLR 20/19 A3003 RMK AO2 T02000194
KPHF 200601Z AUTO 00000KT 1SM BR CLR 20/19 A3004 RMK AO2 T02000189
KPHF 200551Z AUTO 00000KT 1/2SM FG VV009 21/19 A3004 RMK AO2 SLP171 T02060189 10239 20200 50006
KPHF 200550Z AUTO 00000KT 1/2SM FG VV009 21/19 A3004 RMK AO2
KPHF 200534Z AUTO 00000KT 1 3/4SM BR CLR 20/19 A3004 RMK AO2 T02000194
KPHF 200513Z AUTO 00000KT 3SM BR CLR 21/20 A3004 RMK AO2 T02110200
KPHF 200504Z AUTO 00000KT 1 3/4SM BR CLR 21/19 A3004 RMK AO2 T02060194
KPHF 200454Z AUTO 00000KT 4SM BR CLR 21/19 A3004 RMK AO2 SLP171 T02060194 403060200
KPHF 200354Z AUTO 00000KT 6SM BR CLR 21/19 A3004 RMK AO2 SLP170 T02060194
KPHF 200254Z 00000KT 8SM CLR 21/19 A3002 RMK AO2 SLP165 T02110194 51020
KPHF 200154Z 00000KT 9SM CLR 22/20 A3001 RMK AO2 SLP161 T02170200
KPHF 200054Z 03003KT 9SM CLR 22/20 A2998 RMK AO2 SLP151 T02220200
KPHF 192354Z 03004KT 10SM CLR 24/21 A2996 RMK AO2 SLP145 T02390211 10306 20239 53016
KPHF 192254Z 05004KT 10SM CLR 26/21 A2995 RMK AO2 SLP140 T02560211
KPHF 192154Z 36004KT 10SM FEW043 28/21 A2993 RMK AO2 SLP134 T02830206
KPHF 192054Z 36006KT 10SM FEW038 29/21 A2992 RMK AO2 SLP129 T02940211 56001
KPHF 191954Z 36006KT 10SM FEW049 28/21 A2991 RMK AO2 SLP129 T02830206
KPHF 191854Z 36008KT 10SM SCT036 BKN045 30/21 A2991 RMK AO2 SLP128 T03000211
KPHF 191754Z 34005KT 10SM SCT038 29/21 A2992 RMK AO2 SLP131 T02940211 10294 20233 58001
KPHF 191654Z 33010KT 10SM BKN035 BKN044 28/21 A2993 RMK AO2 SLP134 T02830206
KPHF 191554Z 35006KT 10SM FEW028 28/21 A2993 RMK AO2 SLP133 T02830211
KPHF 191454Z 02008KT 10SM CLR 28/22 A2992 RMK AO2 SLP131 T02780217 53013
KPHF 191354Z 34005KT 10SM CLR 26/21 A2991 RMK AO2 SLP128 T02610206
KPHF 191254Z 34008KT 10SM CLR 25/21 A2989 RMK AO2 SLP121 T02500206
KPHF 191154Z 35004KT 10SM CLR 23/20 A2988 RMK AO2 SLP118 70004 T02280200 10233 20211 53014
KPHF 191054Z 33005KT 10SM CLR 21/19 A2986 RMK AO2 SLP111 T02110189
KPHF 190954Z 35005KT 10SM CLR 22/19 A2986 RMK AO2 SLP110 T02220194
KPHF 190854Z AUTO 35006KT 10SM CLR 22/19 A2984 RMK AO2 SLP105 T02220194 52006
KPHF 190754Z AUTO 34007KT 10SM FEW065 23/19 A2984 RMK AO2 SLP102 T02280194
KPHF 190654Z AUTO 36005KT 10SM OVC065 23/20 A2983 RMK AO2 SLP102 T02330200
KPHF 190554Z AUTO 34004KT 10SM SCT060 23/21 A2983 RMK AO2 SLP099 T02280206 10239 20228 55001
KPHF 190454Z AUTO 31006KT 10SM BKN070 23/22 A2982 RMK AO2 SLP098 T02330217 403060228
KPHF 190354Z AUTO 30005KT 10SM SCT060 23/22 A2983 RMK AO2 SLP099 T02330222
KPHF 190254Z AUTO 29004KT 10SM SCT050 BKN060 OVC080 23/22 A2983 RMK AO2 SLP101 T02330217 51012
KPHF 190154Z 32003KT 10SM OVC070 23/21 A2983 RMK AO2 SLP100 T02280206
KPHF 190054Z 36011KT 10SM FEW017 BKN048 OVC060 23/21 A2982 RMK AO2 SLP096 T02330211
KPHF 182354Z 33009KT 10SM SCT011 BKN030 OVC040 23/22 A2979 RMK AO2 RAE54 SLP088 P0000 60004 T02330222 10294 20233 53013
KPHF 182345Z 33008KT 9SM -RA FEW009 BKN016 OVC040 23/22 A2979 RMK AO2 P0000 T02330222
KPHF 182312Z 33009KT 10SM -RA BKN012 BKN016 OVC055 24/23 A2978 RMK AO2 P0000 T02440228
KPHF 182254Z 33008KT 10SM -RA SCT014 BKN029 OVC050 24/23 A2978 RMK AO2 RAE01B19 SLP083 P0000 T02440233
KPHF 182230Z 28006KT 10SM -RA FEW018 BKN024 OVC045 24/23 A2977 RMK AO2 RAE01B19 P0000 T02440228
KPHF 182201Z 24006KT 10SM BKN038 OVC045 24/23 A2977 RMK AO2 RAE01 P0000 T02440228
KPHF 182154Z 24007KT 3SM -RA BR BKN011 BKN044 OVC060 24/23 A2977 RMK AO2 RAB20 SLP078 P0004 T02440228
KPHF 182140Z 27007KT 3SM RA BR BKN011 BKN044 OVC060 24/23 A2977 RMK AO2 RAB20 P0002 T02440228
KPHF 182054Z 25011KT 10SM FEW050 BKN075 28/21 A2975 RMK AO2 SLP075 60000 T02780211 55006